Time;durP1;ratioP1;P1;durP2;ratioP2;P2;SDS_P1;SDS_P2;PMS_P1;PMS_P2;Temp;Humidity;BMP_temperature;BMP_pressure;BME280_temperature;BME280_humidity;BME280_pressure;Samples;Min_cycle;Max_cycle;Signal;HPM_P1;HPM_P2
2024/02/12 00:00:35;;;;;;;2.87;1.20;;;13.50;56.70;;;;;;4997993;28;20489;-61
2024/02/12 00:03:02;;;;;;;1.40;1.30;;;13.30;56.60;;;;;;4966776;28;20477;-60
2024/02/12 00:05:28;;;;;;;0.90;0.90;;;13.30;57.10;;;;;;4978974;28;20889;-61
2024/02/12 00:07:54;;;;;;;1.23;0.83;;;13.30;57.30;;;;;;5008540;28;20463;-59
2024/02/12 00:10:19;;;;;;;1.40;1.10;;;13.40;57.20;;;;;;4993614;28;20191;-60
2024/02/12 00:12:45;;;;;;;1.10;0.80;;;13.40;57.10;;;;;;4964988;28;20716;-59
2024/02/12 00:15:11;;;;;;;1.37;0.97;;;13.40;57.30;;;;;;4963992;28;20207;-60
2024/02/12 00:17:38;;;;;;;1.13;1.03;;;13.40;57.20;;;;;;4960587;28;20222;-60
2024/02/12 00:20:10;;;;;;;1.40;1.10;;;13.40;57.40;;;;;;4968479;28;20457;-60
2024/02/12 00:22:39;;;;;;;2.27;1.27;;;13.40;57.30;;;;;;4966087;28;20529;-60
2024/02/12 00:25:07;;;;;;;0.90;0.87;;;13.30;57.80;;;;;;4968953;28;20561;-60
2024/02/12 00:27:33;;;;;;;1.07;1.00;;;13.10;58.20;;;;;;4975172;28;20473;-60
2024/02/12 00:29:58;;;;;;;0.90;0.90;;;13.00;58.80;;;;;;4982485;28;20410;-61
2024/02/12 00:32:26;;;;;;;1.00;0.90;;;13.20;58.60;;;;;;4960051;28;20984;-58
2024/02/12 00:34:54;;;;;;;1.03;0.90;;;13.40;58.40;;;;;;4962212;28;20191;-61
2024/02/12 00:37:20;;;;;;;0.80;0.80;;;13.20;58.20;;;;;;4964978;28;20570;-61
2024/02/12 00:39:45;;;;;;;1.53;0.80;;;13.20;58.40;;;;;;4964473;28;21041;-60
2024/02/12 00:42:12;;;;;;;1.90;1.30;;;13.30;58.50;;;;;;4963448;28;20690;-59
2024/02/12 00:44:40;;;;;;;0.80;0.80;;;13.30;58.40;;;;;;4980358;28;20203;-59
2024/02/12 00:47:07;;;;;;;1.00;0.93;;;13.00;58.70;;;;;;4962247;28;20880;-60
2024/02/12 00:49:32;;;;;;;0.70;0.70;;;12.90;58.90;;;;;;4966117;28;20451;-61
2024/02/12 00:51:58;;;;;;;0.70;0.70;;;13.10;59.20;;;;;;4966137;28;21349;-60
2024/02/12 00:54:26;;;;;;;1.47;1.30;;;13.10;58.80;;;;;;4958941;28;20194;-60
2024/02/12 00:56:53;;;;;;;1.33;0.70;;;13.10;59.40;;;;;;4961141;28;20663;-61
2024/02/12 00:59:19;;;;;;;1.97;1.03;;;13.20;58.90;;;;;;4963005;28;20470;-60
2024/02/12 01:01:44;;;;;;;1.37;1.10;;;13.10;58.90;;;;;;4965546;28;20538;-61
2024/02/12 01:04:10;;;;;;;1.30;1.00;;;13.20;59.00;;;;;;4968111;28;20192;-61
2024/02/12 01:06:36;;;;;;;1.00;0.90;;;13.20;59.10;;;;;;4984670;28;20290;-60
2024/02/12 01:09:05;;;;;;;1.13;0.90;;;13.20;58.80;;;;;;4984714;28;20227;-60
2024/02/12 01:11:34;;;;;;;0.80;0.80;;;13.20;58.80;;;;;;4965763;28;20541;-60
2024/02/12 01:14:00;;;;;;;1.00;0.83;;;13.20;58.70;;;;;;4963879;28;20442;-60
2024/02/12 01:16:27;;;;;;;1.37;1.00;;;13.30;58.80;;;;;;4964619;28;20489;-61
2024/02/12 01:18:53;;;;;;;0.73;0.73;;;13.30;58.60;;;;;;4961282;28;20203;-61
2024/02/12 01:21:20;;;;;;;3.07;1.00;;;13.40;58.50;;;;;;4967737;28;21007;-60
2024/02/12 01:23:46;;;;;;;1.07;0.80;;;13.20;58.80;;;;;;4961881;28;20445;-61
2024/02/12 01:26:13;;;;;;;1.20;1.10;;;13.20;58.90;;;;;;4960519;28;20604;-60
2024/02/12 01:28:41;;;;;;;0.97;0.87;;;13.30;58.80;;;;;;4992423;28;21676;-60
2024/02/12 01:31:19;;;;;;;0.97;0.87;;;13.30;58.90;;;;;;4985137;28;20450;-61
2024/02/12 01:33:46;;;;;;;5.70;1.00;;;13.30;58.70;;;;;;4961576;28;20972;-62
2024/02/12 01:36:13;;;;;;;1.20;1.10;;;13.20;58.70;;;;;;4962006;28;20514;-60
2024/02/12 01:38:39;;;;;;;0.70;0.70;;;13.30;58.60;;;;;;4967232;28;20451;-60
2024/02/12 01:41:05;;;;;;;0.93;0.87;;;13.30;58.70;;;;;;4961138;28;20435;-60
2024/02/12 01:43:30;;;;;;;1.23;0.80;;;13.20;58.60;;;;;;4958377;28;21317;-61
2024/02/12 01:46:00;;;;;;;1.83;1.00;;;13.20;58.90;;;;;;4960443;28;20216;-59
2024/02/12 01:48:29;;;;;;;1.10;0.80;;;13.20;58.80;;;;;;4960650;28;20455;-61
2024/02/12 01:50:56;;;;;;;2.03;0.90;;;13.10;59.10;;;;;;4968645;28;20854;-60
2024/02/12 01:53:22;;;;;;;1.37;1.27;;;13.20;58.90;;;;;;5006036;28;20514;-61
2024/02/12 01:55:49;;;;;;;0.90;0.70;;;13.30;58.90;;;;;;4961122;28;20477;-60
2024/02/12 01:58:16;;;;;;;2.03;0.70;;;13.10;59.20;;;;;;4957228;28;20531;-59
2024/02/12 02:00:48;;;;;;;1.10;0.93;;;13.10;59.30;;;;;;4962706;28;20992;-61
2024/02/12 02:03:15;;;;;;;1.20;0.90;;;13.10;59.20;;;;;;4960574;28;20446;-60
2024/02/12 02:05:40;;;;;;;0.70;0.70;;;13.00;59.20;;;;;;4962595;28;20551;-60
2024/02/12 02:08:06;;;;;;;0.80;0.80;;;13.00;59.50;;;;;;4977465;28;20921;-60
2024/02/12 02:10:32;;;;;;;1.30;0.97;;;12.90;59.60;;;;;;4965928;28;20294;-61
2024/02/12 02:12:59;;;;;;;0.73;0.73;;;12.90;59.90;;;;;;4959618;28;20183;-61
2024/02/12 02:15:25;;;;;;;1.10;1.00;;;12.80;59.80;;;;;;4959513;28;20195;-59
2024/02/12 02:17:51;;;;;;;1.10;1.00;;;12.80;60.10;;;;;;4962995;28;20486;-60
2024/02/12 02:20:23;;;;;;;1.20;0.93;;;12.80;59.80;;;;;;4964564;28;20504;-59
2024/02/12 02:22:50;;;;;;;1.20;1.10;;;12.90;59.80;;;;;;4964188;28;20199;-60
2024/02/12 02:25:16;;;;;;;1.50;0.80;;;13.00;59.50;;;;;;4963065;28;21065;-61
2024/02/12 02:27:42;;;;;;;1.70;0.77;;;12.90;59.70;;;;;;4984088;28;20465;-60
2024/02/12 02:30:10;;;;;;;1.00;1.00;;;12.80;59.80;;;;;;4961544;28;20671;-61
2024/02/12 02:32:37;;;;;;;2.13;1.00;;;12.70;60.30;;;;;;4965550;28;20240;-60
2024/02/12 02:35:05;;;;;;;2.80;2.60;;;12.80;60.30;;;;;;4979802;28;20522;-59
2024/02/12 02:37:31;;;;;;;2.50;0.93;;;12.80;60.20;;;;;;4959731;28;20496;-60
2024/02/12 02:39:57;;;;;;;0.77;0.77;;;12.70;60.30;;;;;;4964619;28;20438;-60
2024/02/12 02:42:24;;;;;;;2.83;1.03;;;12.60;60.50;;;;;;4960441;28;20434;-60
2024/02/12 02:44:49;;;;;;;1.07;0.90;;;12.70;60.50;;;;;;4963045;28;20249;-61
2024/02/12 02:47:16;;;;;;;3.70;1.00;;;12.60;60.40;;;;;;4978735;28;20471;-59
2024/02/12 02:49:41;;;;;;;1.27;1.10;;;12.50;60.90;;;;;;5007220;28;20209;-60
2024/02/12 02:52:07;;;;;;;1.10;1.00;;;12.50;61.10;;;;;;4968195;28;20530;-61
2024/02/12 02:54:33;;;;;;;1.13;0.83;;;12.40;61.10;;;;;;4958918;28;20740;-59
2024/02/12 02:56:59;;;;;;;0.93;0.80;;;12.20;61.20;;;;;;4996702;28;20288;-61
2024/02/12 02:59:25;;;;;;;0.80;0.80;;;12.20;61.80;;;;;;5011687;28;20180;-59
2024/02/12 03:01:51;;;;;;;1.50;1.10;;;12.10;61.90;;;;;;4966658;28;20459;-61
2024/02/12 03:04:16;;;;;;;0.87;0.83;;;12.00;62.20;;;;;;4966893;28;20240;-61
2024/02/12 03:06:42;;;;;;;0.80;0.73;;;12.00;62.50;;;;;;4962854;28;20294;-61
2024/02/12 03:09:09;;;;;;;0.70;0.70;;;12.20;62.40;;;;;;4963348;28;20263;-60
2024/02/12 03:11:37;;;;;;;1.33;0.90;;;12.20;62.00;;;;;;4964720;28;20806;-61
2024/02/12 03:14:03;;;;;;;2.37;1.40;;;12.00;62.30;;;;;;4968673;28;20443;-60
2024/02/12 03:16:28;;;;;;;0.93;0.83;;;12.10;62.60;;;;;;4965604;28;20489;-61
2024/02/12 03:18:55;;;;;;;0.93;0.77;;;12.20;62.70;;;;;;4965888;28;20681;-59
2024/02/12 03:21:22;;;;;;;0.87;0.80;;;12.10;62.50;;;;;;4967441;28;20200;-60
2024/02/12 03:23:48;;;;;;;0.77;0.73;;;12.20;62.40;;;;;;4986625;28;20434;-61
2024/02/12 03:26:15;;;;;;;2.00;1.17;;;12.00;62.20;;;;;;4968015;28;20767;-61
2024/02/12 03:28:41;;;;;;;1.60;1.50;;;12.20;62.70;;;;;;5010868;28;20444;-64
2024/02/12 03:31:07;;;;;;;1.00;0.80;;;12.20;62.30;;;;;;4968013;28;20471;-63
2024/02/12 03:33:33;;;;;;;1.17;0.97;;;12.10;62.80;;;;;;4965060;28;20969;-62
2024/02/12 03:35:59;;;;;;;2.13;1.20;;;12.00;64.40;;;;;;4967931;28;20515;-64
2024/02/12 03:38:24;;;;;;;1.40;1.30;;;11.80;64.40;;;;;;4967998;28;20208;-70
2024/02/12 03:40:53;;;;;;;0.90;0.80;;;12.00;64.60;;;;;;4968526;28;20240;-66
2024/02/12 03:43:25;;;;;;;1.47;0.87;;;12.00;64.30;;;;;;4977040;28;20274;-64
2024/02/12 03:45:52;;;;;;;1.70;1.17;;;12.20;63.90;;;;;;4964824;28;20462;-67
2024/02/12 04:01:59;;;;;;;2.10;1.27;;;12.20;62.70;;;;;;4968678;28;20458;-64
2024/02/12 04:04:25;;;;;;;1.53;0.70;;;12.30;63.20;;;;;;4967930;28;20457;-68
2024/02/12 04:06:51;;;;;;;0.70;0.70;;;12.20;62.90;;;;;;4965601;28;20462;-66
2024/02/12 04:09:17;;;;;;;2.40;1.03;;;12.10;63.10;;;;;;4978506;28;20238;-66
2024/02/12 04:11:43;;;;;;;2.20;1.10;;;11.90;63.80;;;;;;4972210;28;20435;-65
2024/02/12 04:14:09;;;;;;;1.43;0.70;;;12.00;63.90;;;;;;4965248;28;20868;-64
2024/02/12 04:16:42;;;;;;;2.20;1.33;;;12.10;63.80;;;;;;4967130;28;20565;-64
2024/02/12 04:19:10;;;;;;;0.80;0.80;;;12.10;63.80;;;;;;4967910;28;20459;-64
2024/02/12 04:21:37;;;;;;;1.60;0.87;;;11.90;63.60;;;;;;4975699;28;20838;-62
2024/02/12 04:24:04;;;;;;;0.90;0.73;;;11.80;64.40;;;;;;4968001;28;20450;-64
2024/02/12 04:26:37;;;;;;;1.80;0.80;;;12.00;64.50;;;;;;4964443;28;20478;-61
2024/02/12 04:29:05;;;;;;;0.67;0.67;;;12.00;63.90;;;;;;4966564;28;20447;-63
2024/02/12 04:31:35;;;;;;;1.47;0.87;;;12.00;63.90;;;;;;4969378;28;20462;-66
2024/02/12 04:34:01;;;;;;;1.63;0.87;;;12.20;63.60;;;;;;4968168;28;20454;-68
2024/02/12 04:36:27;;;;;;;1.10;1.00;;;12.20;63.10;;;;;;5005805;28;20479;-65
2024/02/12 04:38:53;;;;;;;1.10;0.80;;;12.30;62.80;;;;;;4981405;28;20427;-61
2024/02/12 04:41:19;;;;;;;1.60;0.90;;;12.20;62.40;;;;;;4986107;28;20419;-65
2024/02/12 04:43:46;;;;;;;1.63;0.93;;;12.10;62.50;;;;;;4967676;28;20199;-63
2024/02/12 04:46:11;;;;;;;2.00;0.93;;;12.10;62.80;;;;;;4989600;28;20489;-70
2024/02/12 04:48:37;;;;;;;2.00;0.80;;;12.20;62.70;;;;;;4963946;28;20946;-63
2024/02/12 04:51:03;;;;;;;1.13;0.90;;;12.40;61.90;;;;;;4964660;28;20191;-67
2024/02/12 04:53:29;;;;;;;1.00;0.83;;;12.60;61.70;;;;;;4959712;28;20282;-68
2024/02/12 04:55:55;;;;;;;1.07;0.90;;;12.60;60.90;;;;;;4962312;28;20627;-70
2024/02/12 04:58:22;;;;;;;3.33;1.00;;;12.40;61.20;;;;;;4965870;28;20195;-66
2024/02/12 05:00:48;;;;;;;1.23;0.80;;;12.60;61.10;;;;;;4963507;28;20443;-64
2024/02/12 05:03:16;;;;;;;1.50;0.90;;;12.60;60.50;;;;;;4961326;28;20464;-70
2024/02/12 05:05:41;;;;;;;1.00;0.80;;;12.80;60.40;;;;;;4962390;28;20474;-62
2024/02/12 05:08:07;;;;;;;0.80;0.77;;;12.80;60.30;;;;;;4961348;28;20446;-63
2024/02/12 05:10:33;;;;;;;0.80;0.73;;;12.90;60.20;;;;;;4961863;28;20443;-65
2024/02/12 05:12:59;;;;;;;2.30;0.97;;;12.80;59.90;;;;;;4960914;28;20933;-65
2024/02/12 05:15:25;;;;;;;1.23;0.80;;;12.60;60.20;;;;;;4960672;28;21105;-68
2024/02/12 05:23:21;;;;;;;1.43;0.83;;;12.70;59.90;;;;;;4995516;28;20535;-70
2024/02/12 05:25:47;;;;;;;0.80;0.80;;;12.70;59.90;;;;;;4983684;28;20526;-63
2024/02/12 05:28:12;;;;;;;1.20;1.00;;;12.60;60.00;;;;;;4964221;28;20179;-62
2024/02/12 05:30:38;;;;;;;3.60;1.10;;;12.60;59.80;;;;;;4960752;28;20446;-65
2024/02/12 05:33:06;;;;;;;5.80;1.40;;;12.50;60.00;;;;;;4995273;28;20218;-64
2024/02/12 05:35:32;;;;;;;1.33;1.23;;;12.60;60.20;;;;;;4994177;28;20187;-65
2024/02/12 05:37:58;;;;;;;2.60;1.17;;;12.40;60.60;;;;;;4966226;28;20479;-62
2024/02/12 05:40:23;;;;;;;1.10;1.00;;;12.30;61.20;;;;;;4962554;28;20461;-64
2024/02/12 05:42:49;;;;;;;1.43;1.33;;;12.30;60.90;;;;;;4980692;28;20622;-62
2024/02/12 05:45:15;;;;;;;1.90;0.90;;;12.30;61.70;;;;;;4983169;28;20187;-67
2024/02/12 05:47:41;;;;;;;2.10;1.20;;;12.40;61.40;;;;;;5007867;28;20208;-65
2024/02/12 05:50:07;;;;;;;1.13;1.00;;;12.50;61.30;;;;;;4963266;28;20185;-63
2024/02/12 05:52:33;;;;;;;1.40;1.30;;;12.50;60.90;;;;;;5005023;28;20458;-62
2024/02/12 05:54:59;;;;;;;2.20;1.60;;;12.40;60.90;;;;;;4984699;28;20461;-65
2024/02/12 05:57:25;;;;;;;1.77;1.20;;;12.50;61.20;;;;;;4970458;28;20478;-66
2024/02/12 05:59:50;;;;;;;2.23;1.13;;;12.70;60.70;;;;;;4994797;28;20200;-60
2024/02/12 06:02:16;;;;;;;2.17;1.60;;;12.90;60.20;;;;;;4962745;28;20202;-64
2024/02/12 06:04:42;;;;;;;1.57;1.40;;;12.90;60.10;;;;;;5019417;28;20564;-68
2024/02/12 06:07:08;;;;;;;3.80;1.53;;;13.00;59.90;;;;;;4967404;28;20461;-64
2024/02/12 06:09:35;;;;;;;1.20;1.10;;;12.60;60.10;;;;;;4964743;28;20480;-66
2024/02/12 06:12:01;;;;;;;2.27;1.60;;;12.50;60.80;;;;;;4964423;28;20222;-61
2024/02/12 06:14:26;;;;;;;2.27;1.93;;;12.40;61.00;;;;;;4959480;28;20538;-62
2024/02/12 06:16:52;;;;;;;1.73;1.63;;;12.40;61.30;;;;;;4960024;28;20313;-68
2024/02/12 06:19:17;;;;;;;3.37;1.77;;;12.50;61.20;;;;;;4961253;28;20659;-60
2024/02/12 06:21:46;;;;;;;3.23;1.63;;;12.70;61.20;;;;;;4961725;28;20190;-65
2024/02/12 06:24:12;;;;;;;2.30;1.90;;;12.70;60.60;;;;;;4963456;28;20187;-67
2024/02/12 06:26:38;;;;;;;5.10;2.10;;;12.90;60.40;;;;;;4965507;28;20520;-63
2024/02/12 06:29:04;;;;;;;2.23;2.00;;;13.00;60.30;;;;;;4967617;28;20219;-60
2024/02/12 06:31:31;;;;;;;2.00;1.80;;;13.10;60.00;;;;;;4965000;28;20442;-67
2024/02/12 06:33:57;;;;;;;3.97;2.27;;;13.20;59.80;;;;;;4968297;28;20442;-60
2024/02/12 06:36:23;;;;;;;3.07;1.90;;;13.20;59.30;;;;;;4963151;28;20582;-62
2024/02/12 06:38:48;;;;;;;3.10;2.10;;;13.20;59.20;;;;;;4966018;28;20591;-63
2024/02/12 06:41:14;;;;;;;4.13;2.73;;;13.10;59.10;;;;;;4965182;28;20198;-66
2024/02/12 06:43:41;;;;;;;4.60;2.90;;;12.90;59.40;;;;;;4963791;28;20180;-62
2024/02/12 06:46:06;;;;;;;2.53;2.30;;;12.70;60.00;;;;;;4983170;28;20965;-66
2024/02/12 06:48:32;;;;;;;2.90;2.40;;;12.70;60.50;;;;;;4968974;28;20451;-63
2024/02/12 06:51:06;;;;;;;3.33;2.30;;;12.90;60.70;;;;;;4967596;28;20190;-67
2024/02/12 06:53:36;;;;;;;2.60;2.30;;;12.90;60.50;;;;;;4967155;28;20191;-63
2024/02/12 06:56:05;;;;;;;3.47;2.40;;;12.80;60.40;;;;;;4970267;28;20482;-62
2024/02/12 06:58:31;;;;;;;4.70;2.20;;;12.80;60.70;;;;;;4968549;28;20806;-63
2024/02/12 07:00:57;;;;;;;3.13;2.73;;;12.90;60.90;;;;;;4966710;28;20439;-69
2024/02/12 07:03:23;;;;;;;4.20;3.17;;;13.10;60.50;;;;;;4979751;28;20179;-62
2024/02/12 07:05:51;;;;;;;4.40;2.97;;;13.30;60.40;;;;;;4969950;28;20435;-63
2024/02/12 07:08:18;;;;;;;2.80;2.37;;;13.50;59.90;;;;;;4973570;28;20187;-62
2024/02/12 07:10:44;;;;;;;3.17;2.87;;;13.50;59.80;;;;;;4969880;28;20431;-64
2024/02/12 07:13:10;;;;;;;3.40;2.93;;;13.70;59.80;;;;;;4974619;28;20511;-63
2024/02/12 07:15:36;;;;;;;4.07;2.73;;;13.80;59.60;;;;;;4969683;28;20446;-62
2024/02/12 07:18:02;;;;;;;4.30;2.30;;;13.90;59.50;;;;;;4969389;28;20219;-62
2024/02/12 07:20:28;;;;;;;2.10;1.90;;;14.00;59.20;;;;;;4964843;28;20439;-61
2024/02/12 07:22:53;;;;;;;2.80;2.10;;;14.10;59.00;;;;;;4991752;28;20484;-63
2024/02/12 07:25:19;;;;;;;2.60;2.40;;;14.10;58.80;;;;;;4967627;28;20666;-67
2024/02/12 07:27:45;;;;;;;4.10;2.80;;;14.10;58.70;;;;;;4967563;28;20592;-67
2024/02/12 07:30:10;;;;;;;3.23;2.80;;;14.20;58.60;;;;;;4967787;28;20191;-66
2024/02/12 07:32:39;;;;;;;2.73;2.00;;;14.20;58.50;;;;;;4969360;28;20198;-60
2024/02/12 07:35:10;;;;;;;2.20;2.00;;;14.20;58.50;;;;;;4968387;28;20447;-64
2024/02/12 07:37:41;;;;;;;2.53;2.27;;;14.30;58.30;;;;;;4989900;28;20485;-63
2024/02/12 07:40:10;;;;;;;3.27;2.37;;;14.30;58.20;;;;;;4995691;28;20438;-63
2024/02/12 07:42:44;;;;;;;4.07;2.33;;;14.40;58.10;;;;;;4968810;28;20458;-61
2024/02/12 07:45:13;;;;;;;3.00;2.43;;;14.40;57.90;;;;;;4975608;28;20466;-62
2024/02/12 07:47:39;;;;;;;3.93;3.47;;;14.40;57.70;;;;;;4968694;28;20457;-62
2024/02/12 07:50:05;;;;;;;2.93;2.63;;;14.40;57.50;;;;;;4969581;28;20427;-61
2024/02/12 07:52:32;;;;;;;9.80;3.73;;;14.50;57.50;;;;;;4968330;28;20573;-64
2024/02/12 07:54:59;;;;;;;5.63;4.03;;;14.40;57.20;;;;;;4966859;28;20447;-63
2024/02/12 07:57:24;;;;;;;7.03;2.93;;;14.30;57.10;;;;;;4968489;28;20877;-70
2024/02/12 07:59:50;;;;;;;5.37;3.07;;;14.20;57.20;;;;;;4968572;28;20439;-64
2024/02/12 08:02:17;;;;;;;4.07;2.90;;;14.30;57.20;;;;;;4969919;28;20191;-59
2024/02/12 08:04:43;;;;;;;4.37;2.27;;;14.30;57.30;;;;;;4965704;28;20446;-66
2024/02/12 08:07:08;;;;;;;3.27;2.57;;;14.00;57.20;;;;;;4966137;28;20839;-61
2024/02/12 08:09:34;;;;;;;3.20;2.30;;;14.10;57.70;;;;;;4966335;28;20187;-63
2024/02/12 08:12:05;;;;;;;4.60;2.10;;;14.20;57.80;;;;;;4965282;28;20184;-64
2024/02/12 08:14:34;;;;;;;4.43;2.07;;;14.30;57.20;;;;;;4968504;28;20246;-60
2024/02/12 08:16:59;;;;;;;3.63;2.30;;;14.30;57.20;;;;;;4965972;28;20486;-63
2024/02/12 08:19:25;;;;;;;5.50;2.47;;;14.30;57.20;;;;;;4974548;28;20445;-63
2024/02/12 08:21:51;;;;;;;4.80;2.60;;;14.20;57.40;;;;;;4971406;28;20832;-59
2024/02/12 08:24:17;;;;;;;3.60;2.47;;;14.10;57.50;;;;;;4968153;28;20187;-61
2024/02/12 08:26:44;;;;;;;2.97;1.80;;;13.90;57.40;;;;;;4985093;28;20605;-63
2024/02/12 08:29:09;;;;;;;3.23;2.43;;;13.90;57.60;;;;;;4992711;28;20455;-65
2024/02/12 08:31:35;;;;;;;3.10;2.40;;;13.90;57.80;;;;;;4997814;28;20462;-65
2024/02/12 08:34:01;;;;;;;2.40;2.20;;;14.00;57.70;;;;;;4988376;28;20215;-63
2024/02/12 08:36:27;;;;;;;2.10;1.90;;;14.10;57.60;;;;;;4975038;28;20306;-63
2024/02/12 08:38:53;;;;;;;2.23;1.80;;;14.00;57.20;;;;;;4984282;28;20185;-63
2024/02/12 08:41:23;;;;;;;1.63;1.50;;;14.00;57.30;;;;;;4987672;28;20530;-60
2024/02/12 08:43:50;;;;;;;5.53;2.20;;;13.90;57.20;;;;;;4985557;28;20455;-66
2024/02/12 08:46:15;;;;;;;2.47;1.90;;;13.70;57.30;;;;;;4966207;28;20474;-63
2024/02/12 08:48:41;;;;;;;2.40;1.70;;;13.40;57.60;;;;;;4974465;28;20445;-64
2024/02/12 08:51:08;;;;;;;4.63;2.00;;;13.50;57.80;;;;;;4965530;28;20638;-61
2024/02/12 08:53:39;;;;;;;1.60;1.50;;;13.30;57.80;;;;;;4967035;28;20192;-73
2024/02/12 08:56:05;;;;;;;1.70;1.50;;;13.40;58.00;;;;;;4961900;28;20485;-63
2024/02/12 08:58:31;;;;;;;2.60;1.53;;;13.40;57.80;;;;;;4964030;28;20763;-61
2024/02/12 09:00:56;;;;;;;2.13;2.03;;;13.60;57.60;;;;;;4958949;28;21761;-65
2024/02/12 09:03:22;;;;;;;3.83;1.63;;;13.70;57.90;;;;;;4976756;28;20241;-73
2024/02/12 09:05:47;;;;;;;3.97;2.37;;;13.80;57.60;;;;;;4991866;28;20208;-64
2024/02/12 09:08:15;;;;;;;6.17;2.63;;;13.90;57.30;;;;;;4982931;28;20206;-63
2024/02/12 09:10:42;;;;;;;3.10;2.20;;;14.00;57.20;;;;;;5005055;28;20546;-69
2024/02/12 09:13:07;;;;;;;1.70;1.60;;;14.00;56.90;;;;;;4967098;28;20450;-63
2024/02/12 09:15:33;;;;;;;1.97;1.77;;;13.90;56.80;;;;;;4984712;28;20454;-66
2024/02/12 09:17:59;;;;;;;1.70;1.60;;;13.90;56.90;;;;;;4982065;28;20208;-60
2024/02/12 09:20:24;;;;;;;1.77;1.40;;;13.60;57.00;;;;;;5005159;28;21159;-71
2024/02/12 09:22:51;;;;;;;2.00;1.80;;;13.60;57.40;;;;;;4980932;28;20207;-73
2024/02/12 09:25:17;;;;;;;3.60;1.93;;;13.80;57.30;;;;;;4983357;28;20191;-63
2024/02/12 09:27:48;;;;;;;1.57;1.47;;;13.90;57.00;;;;;;4980389;28;20462;-70
2024/02/12 09:30:15;;;;;;;2.60;1.60;;;14.00;56.70;;;;;;4988488;28;20198;-62
2024/02/12 09:32:44;;;;;;;1.20;1.10;;;14.00;56.30;;;;;;4967291;28;20430;-61
2024/02/12 09:35:11;;;;;;;2.20;1.30;;;14.00;55.80;;;;;;4985323;28;20855;-62
2024/02/12 09:37:37;;;;;;;1.50;1.40;;;14.00;56.00;;;;;;5003085;28;20470;-65
2024/02/12 09:40:03;;;;;;;3.83;1.40;;;13.90;55.90;;;;;;4981403;28;20438;-73
2024/02/12 09:42:32;;;;;;;2.10;1.30;;;14.00;55.90;;;;;;4982111;28;20195;-64
2024/02/12 09:45:01;;;;;;;1.57;1.43;;;14.00;55.80;;;;;;4984520;28;20446;-64
2024/02/12 09:47:32;;;;;;;1.20;1.10;;;14.00;55.70;;;;;;4962046;28;20478;-62
2024/02/12 09:49:58;;;;;;;1.67;1.57;;;14.00;55.40;;;;;;5005990;28;20442;-60
2024/02/12 09:52:28;;;;;;;2.70;1.90;;;14.20;55.00;;;;;;4987900;28;20507;-65
2024/02/12 09:54:54;;;;;;;1.63;1.23;;;14.40;54.90;;;;;;4978366;28;20191;-63
2024/02/12 09:57:20;;;;;;;1.50;1.40;;;14.40;54.80;;;;;;4978239;28;20478;-62
2024/02/12 09:59:46;;;;;;;1.30;1.20;;;14.30;54.70;;;;;;4987646;28;20488;-64
2024/02/12 10:02:13;;;;;;;1.60;1.50;;;14.50;54.90;;;;;;4995956;28;20180;-59
2024/02/12 10:04:39;;;;;;;4.13;1.60;;;14.20;55.00;;;;;;5011371;28;20530;-59
2024/02/12 10:07:05;;;;;;;1.47;1.37;;;14.30;55.30;;;;;;4979859;28;20558;-67
2024/02/12 10:09:35;;;;;;;2.57;1.40;;;14.40;55.20;;;;;;4977639;28;20524;-60
2024/02/12 10:12:08;;;;;;;2.83;1.53;;;14.50;54.80;;;;;;4964495;28;20230;-67
2024/02/12 10:14:34;;;;;;;1.60;1.43;;;14.50;54.50;;;;;;4992888;28;20469;-68
2024/02/12 10:17:00;;;;;;;1.90;1.80;;;14.30;54.60;;;;;;5004580;28;20501;-70
2024/02/12 10:19:27;;;;;;;1.80;1.70;;;14.10;55.20;;;;;;4984830;28;20450;-62
2024/02/12 10:21:54;;;;;;;1.73;1.50;;;13.90;55.50;;;;;;5001131;28;20438;-61
2024/02/12 10:24:20;;;;;;;1.80;1.70;;;13.90;55.70;;;;;;4989735;28;20478;-68
2024/02/12 10:26:50;;;;;;;2.10;1.70;;;14.00;55.80;;;;;;4980404;28;20458;-62
2024/02/12 10:29:16;;;;;;;2.50;1.90;;;14.20;55.80;;;;;;4965406;28;20419;-68
2024/02/12 10:31:42;;;;;;;2.30;1.53;;;14.40;56.00;;;;;;4964644;28;20974;-65
2024/02/12 10:34:09;;;;;;;1.97;1.60;;;14.50;55.60;;;;;;4967682;28;20804;-63
2024/02/12 10:36:35;;;;;;;2.93;1.67;;;14.20;55.60;;;;;;4969721;28;20886;-68
2024/02/12 10:39:04;;;;;;;3.97;2.00;;;14.10;55.50;;;;;;4971123;28;20446;-63
2024/02/12 10:41:31;;;;;;;2.40;2.20;;;14.10;56.20;;;;;;4973678;28;20187;-65
2024/02/12 10:43:58;;;;;;;2.33;1.93;;;14.10;56.00;;;;;;4986838;28;20439;-61
2024/02/12 10:46:25;;;;;;;1.73;1.57;;;14.30;55.70;;;;;;4984976;28;20454;-68
2024/02/12 10:48:52;;;;;;;3.70;1.80;;;14.30;55.70;;;;;;4997568;28;20438;-64
2024/02/12 10:51:20;;;;;;;2.97;1.97;;;14.30;55.40;;;;;;4985897;28;20443;-69
2024/02/12 10:53:46;;;;;;;2.13;1.90;;;14.10;55.70;;;;;;5002868;28;20453;-70
2024/02/12 10:56:12;;;;;;;1.70;1.60;;;14.20;55.60;;;;;;4963279;28;20517;-63
2024/02/12 10:58:40;;;;;;;1.77;1.50;;;14.30;55.70;;;;;;4975039;28;20245;-68
2024/02/12 11:01:10;;;;;;;2.03;1.83;;;14.60;55.40;;;;;;4983451;28;20430;-73
2024/02/12 11:03:43;;;;;;;2.20;1.87;;;14.60;55.10;;;;;;5015111;28;20502;-66
2024/02/12 11:06:14;;;;;;;1.93;1.47;;;14.50;54.70;;;;;;5001334;28;20476;-63
2024/02/12 11:08:44;;;;;;;2.70;1.70;;;14.50;55.00;;;;;;5007193;28;20802;-61
2024/02/12 11:11:13;;;;;;;3.77;2.53;;;14.70;54.90;;;;;;4986344;28;21460;-68
2024/02/12 11:13:42;;;;;;;2.20;2.00;;;14.80;54.50;;;;;;5010467;28;20481;-61
2024/02/12 11:16:15;;;;;;;2.17;1.97;;;14.80;54.40;;;;;;5004994;28;20457;-66
2024/02/12 11:18:40;;;;;;;1.77;1.67;;;14.70;54.10;;;;;;5016351;28;20984;-67
2024/02/12 11:21:10;;;;;;;5.90;1.80;;;14.60;54.70;;;;;;4989691;28;20431;-78
2024/02/12 11:23:40;;;;;;;3.53;2.27;;;14.80;55.60;;;;;;4995810;28;20195;-62
2024/02/12 11:26:06;;;;;;;2.73;2.20;;;14.80;55.70;;;;;;5012962;28;20459;-61
2024/02/12 11:28:32;;;;;;;3.67;2.10;;;14.70;56.60;;;;;;4993128;28;20444;-67
2024/02/12 11:30:58;;;;;;;2.90;2.50;;;14.80;57.60;;;;;;4984799;28;20434;-61
2024/02/12 11:33:24;;;;;;;2.40;2.13;;;14.70;58.40;;;;;;5009827;28;20426;-62
2024/02/12 11:35:50;;;;;;;7.90;2.27;;;14.80;58.60;;;;;;5018513;28;20454;-76
2024/02/12 11:38:17;;;;;;;2.80;2.00;;;14.80;58.70;;;;;;5001941;28;20908;-68
2024/02/12 11:40:42;;;;;;;3.20;1.83;;;15.00;58.70;;;;;;5008171;28;20434;-69
2024/02/12 11:43:09;;;;;;;3.70;2.30;;;15.00;58.00;;;;;;4991520;28;20504;-66
2024/02/12 11:45:35;;;;;;;3.77;1.93;;;14.90;57.60;;;;;;4987673;28;20275;-65
2024/02/12 11:48:11;;;;;;;3.90;1.63;;;14.80;58.00;;;;;;5013860;28;20904;-65
2024/02/12 11:50:40;;;;;;;2.70;1.97;;;14.80;57.60;;;;;;5016487;28;20788;-65
2024/02/12 11:53:06;;;;;;;2.77;1.90;;;14.80;57.70;;;;;;4987945;28;20545;-61
2024/02/12 11:55:32;;;;;;;2.63;1.90;;;14.70;57.50;;;;;;5012121;28;20882;-63
2024/02/12 11:57:58;;;;;;;3.43;2.00;;;14.60;57.30;;;;;;5019682;28;20223;-61
2024/02/12 12:00:24;;;;;;;1.90;1.77;;;14.60;57.60;;;;;;4989249;28;20527;-63
2024/02/12 12:02:55;;;;;;;2.20;2.00;;;14.50;57.40;;;;;;5001764;28;20962;-63
2024/02/12 12:05:22;;;;;;;1.93;1.77;;;14.70;57.50;;;;;;4997928;28;20191;-67
2024/02/12 12:07:48;;;;;;;2.60;1.83;;;14.70;57.10;;;;;;5000857;28;20479;-62
2024/02/12 12:10:23;;;;;;;4.53;1.90;;;14.70;56.80;;;;;;5014569;28;20885;-61
2024/02/12 12:12:50;;;;;;;1.53;1.43;;;14.50;56.90;;;;;;4981523;28;20271;-62
2024/02/12 12:15:18;;;;;;;4.20;1.90;;;14.50;57.10;;;;;;5005107;28;20449;-63
2024/02/12 12:17:44;;;;;;;2.80;1.90;;;14.50;57.00;;;;;;4985786;28;20577;-65
2024/02/12 12:20:12;;;;;;;2.43;2.00;;;14.50;57.10;;;;;;5003340;28;20529;-64
2024/02/12 12:22:42;;;;;;;1.93;1.30;;;14.40;56.70;;;;;;4995174;28;20517;-64
2024/02/12 12:25:09;;;;;;;2.70;1.63;;;14.60;56.90;;;;;;5000304;28;20466;-65
2024/02/12 12:27:37;;;;;;;2.30;1.67;;;14.70;56.30;;;;;;5012884;28;20492;-62
2024/02/12 12:30:16;;;;;;;2.77;1.90;;;14.70;56.10;;;;;;4995775;28;20488;-61
2024/02/12 12:32:42;;;;;;;2.20;1.40;;;14.80;56.10;;;;;;4983466;28;20929;-63
2024/02/12 12:35:08;;;;;;;3.20;1.60;;;14.70;56.20;;;;;;4986188;28;20439;-63
2024/02/12 12:37:38;;;;;;;2.00;1.80;;;14.70;55.70;;;;;;5015409;28;20581;-64
2024/02/12 12:40:19;;;;;;;3.13;1.97;;;14.60;55.70;;;;;;4993469;28;20789;-64
2024/02/12 12:42:49;;;;;;;2.17;1.50;;;14.60;55.60;;;;;;4972700;28;20458;-67
2024/02/12 12:45:18;;;;;;;2.93;1.80;;;14.60;55.60;;;;;;4985355;28;20538;-63
2024/02/12 12:47:44;;;;;;;2.90;1.90;;;14.70;55.20;;;;;;4980420;28;20463;-62
2024/02/12 12:50:12;;;;;;;1.97;1.40;;;14.80;55.30;;;;;;5012134;28;20520;-64
2024/02/12 12:52:39;;;;;;;2.57;1.53;;;14.80;55.30;;;;;;5004459;28;20435;-71
2024/02/12 12:55:08;;;;;;;2.03;1.53;;;14.90;55.50;;;;;;4970972;28;20462;-62
2024/02/12 12:57:34;;;;;;;1.50;1.40;;;14.90;55.30;;;;;;5006471;28;20493;-64
2024/02/12 13:00:01;;;;;;;2.40;1.50;;;15.00;55.10;;;;;;5015339;28;20948;-62
2024/02/12 13:02:27;;;;;;;2.57;1.60;;;15.20;55.50;;;;;;4971316;28;20852;-68
2024/02/12 13:04:53;;;;;;;2.07;1.40;;;15.20;54.90;;;;;;4983735;28;20434;-64